Augusta, Kansas
Current Conditions -  °F | °C
As of 12:55 PM on Tuesday 27 Jan 2015 (Local Time) from KEQA Reporting Station
Clear Clear  
Wind Chill: 20°   Ceiling: Unl
Heat Index: 20°   Visibility: 10mi
Dew Point:   Wind: 14mph
Humidity: 26%   Direction: 190°S
Pressure: 30.09"   Gusts: NA
Location:  37.68°N, 96.98°W
Report Text: KEQA 271855Z AUTO 19012KT 10SM CLR 20/00 A3009 RMK AO2
Loading
Personal Weather Stations






























Interactive Weather Map New forecast layout! Learn more

10-Day Weather Forecast

Advertisements
Track Severe Weather on mobile